createdAt,value
2022-09-02T00:00:24.956Z,9.661625
2022-09-02T00:01:24.959Z,9.661623
2022-09-02T00:02:25.070Z,9.661624
2022-09-02T00:03:25.212Z,9.661590
2022-09-02T00:04:24.959Z,9.661542
2022-09-02T00:05:24.937Z,9.661576
2022-09-02T00:06:24.941Z,9.661565
2022-09-02T00:07:24.933Z,9.661581
2022-09-02T00:08:25.044Z,9.661420
2022-09-02T00:09:24.916Z,9.661506
2022-09-02T00:10:24.917Z,9.661547
2022-09-02T00:11:24.902Z,9.661541
2022-09-02T00:12:24.904Z,9.661531
2022-09-02T00:13:24.903Z,9.661514
2022-09-02T00:14:24.983Z,9.661538
2022-09-02T00:15:24.875Z,9.661531
2022-09-02T00:16:24.908Z,9.661529
2022-09-02T00:17:24.879Z,9.661543
2022-09-02T00:18:24.890Z,9.661534
2022-09-02T00:19:24.868Z,9.661562
2022-09-02T00:20:24.856Z,9.661637
2022-09-02T00:21:24.847Z,9.661640
2022-09-02T00:22:24.832Z,9.661563
2022-09-02T00:23:27.342Z,9.661522
2022-09-02T00:24:24.823Z,9.661519
2022-09-02T00:25:24.849Z,9.661513
2022-09-02T00:26:24.815Z,9.661581
2022-09-02T00:27:24.802Z,9.661574
2022-09-02T00:28:24.808Z,9.661448
2022-09-02T00:29:24.787Z,9.661497
2022-09-02T00:30:24.807Z,9.661567
2022-09-02T00:31:24.907Z,9.661524
2022-09-02T00:32:24.773Z,9.661493
2022-09-02T00:33:24.778Z,9.661600
2022-09-02T00:34:24.787Z,9.661610
2022-09-02T00:35:24.756Z,9.661584
2022-09-02T00:36:24.781Z,9.661583
2022-09-02T00:37:24.747Z,9.661523
2022-09-02T00:38:24.749Z,9.661591
2022-09-02T00:39:24.727Z,9.661615
2022-09-02T00:40:24.755Z,9.661628
2022-09-02T00:41:24.837Z,9.661618
2022-09-02T00:42:24.715Z,9.661769
2022-09-02T00:43:24.703Z,9.661671
2022-09-02T00:44:24.725Z,9.661473
2022-09-02T00:45:24.752Z,9.661471
2022-09-02T00:46:24.704Z,9.661495
2022-09-02T00:47:24.705Z,9.661510
2022-09-02T00:48:24.676Z,9.661578
2022-09-02T00:49:24.671Z,9.661586
2022-09-02T00:50:24.668Z,9.661777
2022-09-02T00:51:24.692Z,9.661620
2022-09-02T00:52:24.677Z,9.661596
2022-09-02T00:53:24.661Z,9.661533
2022-09-02T00:54:24.654Z,9.661576
2022-09-02T00:55:24.644Z,9.661559
2022-09-02T00:56:24.619Z,9.661600
2022-09-02T00:57:24.612Z,9.661690
2022-09-02T00:58:24.650Z,9.661744
2022-09-02T00:59:24.617Z,9.661768
2022-09-02T01:00:24.615Z,9.661765
2022-09-02T01:01:24.726Z,9.661685
2022-09-02T01:02:24.690Z,9.661315
2022-09-02T01:03:24.621Z,9.661408
2022-09-02T01:04:24.577Z,9.661633
2022-09-02T01:05:24.573Z,9.661565
2022-09-02T01:06:24.560Z,9.661567
2022-09-02T01:07:24.554Z,9.661676
2022-09-02T01:08:24.532Z,9.661623
2022-09-02T01:09:25.587Z,9.661465
2022-09-02T01:10:24.535Z,9.661572
2022-09-02T01:11:24.540Z,9.661689
2022-09-02T01:12:24.537Z,9.661630
2022-09-02T01:13:24.516Z,9.661641
2022-09-02T01:14:24.535Z,9.661736
2022-09-02T01:15:24.529Z,9.661750
2022-09-02T01:16:24.564Z,9.661749
2022-09-02T01:17:24.521Z,9.661586
2022-09-02T01:18:24.491Z,9.661650
2022-09-02T01:19:24.498Z,9.661565
2022-09-02T01:20:25.441Z,9.661601
2022-09-02T01:21:24.477Z,9.661598
2022-09-02T01:22:24.474Z,9.661639
2022-09-02T01:23:24.492Z,9.661621
2022-09-02T01:24:24.482Z,9.661498
2022-09-02T01:25:24.475Z,9.661662
2022-09-02T01:26:24.479Z,9.661590
2022-09-02T01:27:24.449Z,9.661630
2022-09-02T01:28:24.425Z,9.661717
2022-09-02T01:29:24.440Z,9.661698
2022-09-02T01:30:24.445Z,9.661796
2022-09-02T01:31:24.456Z,9.661922
2022-09-02T01:32:24.403Z,9.662079
2022-09-02T01:33:25.224Z,9.662043
2022-09-02T01:34:24.408Z,9.661914
2022-09-02T01:35:24.415Z,9.661701
2022-09-02T01:36:24.381Z,9.661609
2022-09-02T01:37:24.380Z,9.661550
2022-09-02T01:38:24.381Z,9.661633
2022-09-02T01:39:24.368Z,9.661487
2022-09-02T01:40:24.603Z,9.661500
2022-09-02T01:41:24.367Z,9.661375
2022-09-02T01:42:24.355Z,9.661442
2022-09-02T01:43:24.348Z,9.661467
2022-09-02T01:44:24.325Z,9.661603
2022-09-02T01:45:24.353Z,9.661720
2022-09-02T01:46:24.352Z,9.661474
2022-09-02T01:47:24.324Z,9.661506
2022-09-02T01:48:24.321Z,9.661514
2022-09-02T01:49:24.295Z,9.661535
2022-09-02T01:50:24.311Z,9.661596
2022-09-02T01:51:24.306Z,9.661504
2022-09-02T01:52:24.270Z,9.661619
2022-09-02T01:53:24.289Z,9.661594
2022-09-02T01:54:24.256Z,9.661561
2022-09-02T01:55:24.259Z,9.661572
2022-09-02T01:56:24.292Z,9.661567
2022-09-02T01:57:24.255Z,9.661630
2022-09-02T01:58:24.239Z,9.661582
2022-09-02T01:59:24.225Z,9.661501
2022-09-02T02:00:24.231Z,9.661580
2022-09-02T02:01:24.286Z,9.661551
2022-09-02T02:02:24.360Z,9.661508
2022-09-02T02:03:24.226Z,9.661533
2022-09-02T02:04:24.216Z,9.661581
2022-09-02T02:05:24.210Z,9.661597
2022-09-02T02:06:24.209Z,9.661680
2022-09-02T02:07:24.211Z,9.661574
2022-09-02T02:08:24.181Z,9.661591
2022-09-02T02:09:24.192Z,9.661622
2022-09-02T02:10:24.164Z,9.661568
2022-09-02T02:11:24.171Z,9.661529
2022-09-02T02:12:24.146Z,9.661530
2022-09-02T02:13:24.177Z,9.661528
2022-09-02T02:14:24.154Z,9.661481
2022-09-02T02:19:10.546Z,9.661429
2022-09-02T02:20:10.551Z,9.661305
2022-09-02T02:21:10.522Z,9.661277
2022-09-02T02:22:10.536Z,9.661386
2022-09-02T02:23:10.552Z,9.661456
2022-09-02T02:24:10.549Z,9.661542
2022-09-02T02:25:10.497Z,9.661542
2022-09-02T02:26:10.515Z,9.661542
2022-09-02T02:27:10.499Z,9.661542
2022-09-02T02:28:10.480Z,9.661542
2022-09-02T02:29:10.476Z,9.661542
2022-09-02T02:30:10.504Z,9.661542
2022-09-02T02:31:10.547Z,9.661542
2022-09-02T02:32:10.465Z,9.661542
2022-09-02T02:33:10.468Z,9.661542
2022-09-02T02:34:10.456Z,9.661542
2022-09-02T02:35:10.477Z,9.661542
2022-09-02T02:36:10.449Z,9.661542
2022-09-02T02:37:10.432Z,9.661542
2022-09-02T02:38:10.418Z,9.661542
2022-09-02T02:39:10.424Z,9.661542
2022-09-02T02:40:10.426Z,9.661542
2022-09-02T02:41:10.533Z,9.661542
2022-09-02T02:42:10.397Z,9.661542
2022-09-02T02:43:10.398Z,9.661542
2022-09-02T02:44:10.394Z,9.661542
2022-09-02T02:45:15.153Z,9.661542
2022-09-02T02:46:11.506Z,9.661542
2022-09-02T02:47:10.374Z,9.661542
2022-09-02T02:48:10.364Z,9.661542
2022-09-02T02:49:10.362Z,9.661542
2022-09-02T02:50:10.351Z,9.661542
2022-09-02T02:51:10.350Z,9.661542
2022-09-02T02:52:10.435Z,9.661542
2022-09-02T02:53:10.330Z,9.661542
2022-09-02T02:54:10.304Z,9.661542
2022-09-02T02:55:10.320Z,9.661542
2022-09-02T02:56:10.306Z,9.661542
2022-09-02T02:57:10.312Z,9.661542
2022-09-02T02:58:10.291Z,9.661542
2022-09-02T02:59:11.291Z,9.661542
2022-09-02T03:00:10.275Z,9.661542
2022-09-02T03:01:10.302Z,9.661542
2022-09-02T03:02:10.529Z,9.661542
2022-09-02T03:03:10.385Z,9.661542
2022-09-02T03:04:10.227Z,9.661542
2022-09-02T03:05:10.282Z,9.661542
2022-09-02T03:06:10.231Z,9.661542
2022-09-02T03:07:10.231Z,9.661542
2022-09-02T03:08:10.263Z,9.661542
2022-09-02T03:09:10.228Z,9.661542
2022-09-02T03:10:10.214Z,9.661542
2022-09-02T03:11:10.210Z,9.661542
2022-09-02T03:12:10.201Z,9.661542
2022-09-02T03:13:10.210Z,9.661542
2022-09-02T03:14:10.215Z,9.661542
2022-09-02T03:15:10.197Z,9.661542
2022-09-02T03:16:10.199Z,9.661542
2022-09-02T03:17:10.167Z,9.661542
2022-09-02T03:18:10.171Z,9.661542
2022-09-02T03:19:10.188Z,9.661542
2022-09-02T03:20:10.154Z,9.661542
2022-09-02T03:21:10.163Z,9.661542
2022-09-02T03:22:10.136Z,9.661542
2022-09-02T03:23:10.167Z,9.661542
2022-09-02T03:24:10.143Z,9.661542
2022-09-02T03:25:10.241Z,9.661542
2022-09-02T03:26:10.117Z,9.661542
2022-09-02T03:27:10.158Z,9.661512
2022-09-02T03:28:10.099Z,9.661456
2022-09-02T03:29:10.086Z,9.661448
2022-09-02T03:30:10.198Z,9.661395
2022-09-02T03:31:11.091Z,9.661422
2022-09-02T03:32:10.117Z,9.661363
2022-09-02T03:33:10.065Z,9.661427
2022-09-02T03:34:10.075Z,9.661483
2022-09-02T03:35:10.065Z,9.661490
2022-09-02T03:36:10.070Z,9.661448
2022-09-02T03:37:10.039Z,9.661411
2022-09-02T03:38:10.043Z,9.661307
2022-09-02T03:39:10.266Z,9.661288
2022-09-02T03:40:10.047Z,9.661430
2022-09-02T03:41:10.052Z,9.661477
2022-09-02T03:42:17.484Z,9.661553
2022-09-02T03:43:10.010Z,9.661510
2022-09-02T03:44:10.006Z,9.661559
2022-09-02T03:45:09.994Z,9.661467
2022-09-02T03:46:10.030Z,9.661523
2022-09-02T03:47:10.014Z,9.661467
2022-09-02T03:48:09.966Z,9.661470
2022-09-02T03:49:09.978Z,9.661446
2022-09-02T03:50:11.060Z,9.661448
2022-09-02T03:51:09.954Z,9.661352
2022-09-02T03:52:09.998Z,9.661560
2022-09-02T03:53:09.946Z,9.661475
2022-09-02T03:54:10.943Z,9.661411
2022-09-02T03:55:09.932Z,9.661540
2022-09-02T03:56:09.934Z,9.661621
2022-09-02T03:57:09.929Z,9.661631
2022-09-02T03:58:10.024Z,9.661559
2022-09-02T03:59:09.919Z,9.661585
2022-09-02T04:00:09.893Z,9.661544
2022-09-02T04:01:10.995Z,9.661458
2022-09-02T04:02:10.034Z,9.661536
2022-09-02T04:03:09.949Z,9.661427
2022-09-02T04:04:09.886Z,9.661447
2022-09-02T04:05:10.347Z,9.661525
2022-09-02T04:06:10.863Z,9.661560
2022-09-02T04:07:09.873Z,9.661516
2022-09-02T04:08:41.926Z,9.661412
2022-09-02T04:09:09.859Z,9.661530
2022-09-02T04:10:09.836Z,9.661420
2022-09-02T04:11:09.829Z,9.661460
2022-09-02T04:12:09.834Z,9.661498
2022-09-02T04:13:09.834Z,9.661483
2022-09-02T04:14:09.838Z,9.661463
2022-09-02T04:15:09.816Z,9.661510
2022-09-02T04:16:10.707Z,9.661574
2022-09-02T04:17:09.797Z,9.661474
2022-09-02T04:18:09.805Z,9.661493
2022-09-02T04:19:09.906Z,9.661510
2022-09-02T04:20:09.798Z,9.661471
2022-09-02T04:21:09.784Z,9.661486
2022-09-02T04:22:09.772Z,9.661631
2022-09-02T04:23:09.761Z,9.661507
2022-09-02T04:24:09.767Z,9.661481
2022-09-02T04:25:09.788Z,9.661467
2022-09-02T04:26:09.759Z,9.661490
2022-09-02T04:27:10.579Z,9.661407
2022-09-02T04:28:09.747Z,9.661451
2022-09-02T04:29:09.729Z,9.661429
2022-09-02T04:30:09.732Z,9.661406
2022-09-02T04:31:09.797Z,9.661330
2022-09-02T04:32:09.726Z,9.661376
2022-09-02T04:33:09.702Z,9.661132
2022-09-02T04:34:09.708Z,9.661099
2022-09-02T04:35:09.701Z,9.661366
2022-09-02T04:36:09.719Z,9.661471
2022-09-02T04:37:09.684Z,9.661363
2022-09-02T04:38:09.676Z,9.661177
2022-09-02T04:39:09.676Z,9.661255
2022-09-02T04:40:09.713Z,9.661269
2022-09-02T04:41:09.668Z,9.661403
2022-09-02T04:42:09.650Z,9.661480
2022-09-02T04:43:09.632Z,9.661428
2022-09-02T04:44:09.640Z,9.661405
2022-09-02T04:45:09.634Z,9.661358
2022-09-02T04:46:09.663Z,9.661384
2022-09-02T04:47:09.717Z,9.661422
2022-09-02T04:48:09.618Z,9.661450
2022-09-02T04:49:09.652Z,9.661480
2022-09-02T04:50:09.594Z,9.661509
2022-09-02T04:51:09.591Z,9.661539
2022-09-02T04:52:09.603Z,9.661610
2022-09-02T04:53:09.583Z,9.661600
2022-09-02T04:54:09.576Z,9.661560
2022-09-02T04:55:09.559Z,9.661511
2022-09-02T04:56:09.568Z,9.661550
2022-09-02T04:57:09.569Z,9.661552
2022-09-02T04:58:09.589Z,9.661535
2022-09-02T04:59:09.552Z,9.661547
2022-09-02T05:00:09.546Z,9.661516
2022-09-02T05:01:09.587Z,9.661524
2022-09-02T05:02:09.573Z,9.661469
2022-09-02T05:03:09.542Z,9.661485
2022-09-02T05:04:09.588Z,9.661468
2022-09-02T05:05:09.511Z,9.661515
2022-09-02T05:06:09.498Z,9.661501
2022-09-02T05:07:09.485Z,9.661489
2022-09-02T05:08:09.502Z,9.661394
2022-09-02T05:09:09.520Z,9.661360
2022-09-02T05:10:09.497Z,9.661542
2022-09-02T05:11:09.472Z,9.661622
2022-09-02T05:12:09.475Z,9.661660
2022-09-02T05:13:09.461Z,9.661667
2022-09-02T05:14:09.490Z,9.661549
2022-09-02T05:15:09.459Z,9.661573
2022-09-02T05:16:09.506Z,9.661438
2022-09-02T05:17:09.455Z,9.661428
2022-09-02T05:18:09.434Z,9.661386
2022-09-02T05:19:09.433Z,9.661260
2022-09-02T05:20:09.450Z,9.661349
2022-09-02T05:21:09.412Z,9.661500
2022-09-02T05:22:09.405Z,9.661551
2022-09-02T05:23:09.413Z,9.661553
2022-09-02T05:24:09.414Z,9.661578
2022-09-02T05:25:09.421Z,9.661688
2022-09-02T05:26:09.380Z,9.661563
2022-09-02T05:27:09.370Z,9.661635
2022-09-02T05:28:09.363Z,9.661527
2022-09-02T05:29:09.365Z,9.661526
2022-09-02T05:30:09.364Z,9.661630
2022-09-02T05:31:09.425Z,9.661609
2022-09-02T05:32:09.340Z,9.661680
2022-09-02T05:33:09.331Z,9.661646
2022-09-02T05:34:09.319Z,9.661631
2022-09-02T05:35:09.300Z,9.661709
2022-09-02T05:36:09.329Z,9.661629
2022-09-02T05:37:09.311Z,9.661568
2022-09-02T05:38:10.043Z,9.661535
2022-09-02T05:39:09.317Z,9.661559
2022-09-02T05:40:09.331Z,9.661572
2022-09-02T05:41:09.286Z,9.661675
2022-09-02T05:42:09.312Z,9.661576
2022-09-02T05:43:09.276Z,9.661611
2022-09-02T05:44:09.269Z,9.661537
2022-09-02T05:45:09.289Z,9.661633
2022-09-02T05:46:09.309Z,9.661716
2022-09-02T05:47:09.636Z,9.661789
2022-09-02T05:48:09.243Z,9.661683
2022-09-02T05:49:09.318Z,9.661677
2022-09-02T05:50:09.240Z,9.661545
2022-09-02T05:51:09.236Z,9.661366
2022-09-02T05:52:09.209Z,9.661491
2022-09-02T05:53:14.212Z,9.661313
2022-09-02T05:54:11.211Z,9.661370
2022-09-02T05:55:09.198Z,9.661382
2022-09-02T05:56:09.199Z,9.661400
2022-09-02T05:57:09.210Z,9.661706
2022-09-02T05:58:09.206Z,9.661775
2022-09-02T05:59:09.177Z,9.661794
2022-09-02T06:00:09.267Z,9.661731
2022-09-02T06:01:10.120Z,9.661563
2022-09-02T06:02:09.195Z,9.661579
2022-09-02T06:03:09.202Z,9.661642
2022-09-02T06:04:09.271Z,9.661621
2022-09-02T06:05:09.153Z,9.661579
2022-09-02T06:06:09.144Z,9.661583
2022-09-02T06:07:09.133Z,9.661530
2022-09-02T06:08:09.159Z,9.661508
2022-09-02T06:09:09.150Z,9.661589
2022-09-02T06:10:09.116Z,9.661586
2022-09-02T06:11:09.113Z,9.661630
2022-09-02T06:12:09.167Z,9.661706
2022-09-02T06:13:09.077Z,9.661690
2022-09-02T06:14:09.105Z,9.661657
2022-09-02T06:15:09.070Z,9.661605
2022-09-02T06:16:09.221Z,9.661596
2022-09-02T06:17:09.107Z,9.661611
2022-09-02T06:18:09.052Z,9.661656
2022-09-02T06:19:09.065Z,9.661723
2022-09-02T06:20:09.043Z,9.661667
2022-09-02T06:21:09.032Z,9.661657
2022-09-02T06:22:09.047Z,9.661711
2022-09-02T06:23:09.022Z,9.661704
2022-09-02T06:24:09.032Z,9.661413
2022-09-02T06:25:09.003Z,9.661613
2022-09-02T06:26:09.037Z,9.661712
2022-09-02T06:27:08.994Z,9.661658
2022-09-02T06:28:08.998Z,9.661636
2022-09-02T06:29:08.978Z,9.661646
2022-09-02T06:30:09.013Z,9.661930
2022-09-02T06:31:09.032Z,9.662024
2022-09-02T06:32:08.983Z,9.661777
2022-09-02T06:33:08.978Z,9.661780
2022-09-02T06:34:08.949Z,9.661595
2022-09-02T06:35:08.987Z,9.661653
2022-09-02T06:36:08.942Z,9.661599
2022-09-02T06:37:08.947Z,9.661703
2022-09-02T06:38:08.930Z,9.661504
2022-09-02T06:39:08.913Z,9.661417
2022-09-02T06:40:08.954Z,9.661628
2022-09-02T06:41:09.023Z,9.661519
2022-09-02T06:42:08.889Z,9.661559
2022-09-02T06:43:08.896Z,9.661522
2022-09-02T06:44:08.908Z,9.661710
2022-09-02T06:45:08.883Z,9.661687
2022-09-02T06:46:09.117Z,9.661635
2022-09-02T06:47:08.885Z,9.661921
2022-09-02T06:48:08.870Z,9.661771
2022-09-02T06:49:08.902Z,9.661882
2022-09-02T06:50:08.860Z,9.661966
2022-09-02T06:51:08.857Z,9.662051
2022-09-02T06:52:08.944Z,9.661946
2022-09-02T06:53:08.835Z,9.661935
2022-09-02T06:54:08.849Z,9.662108
2022-09-02T06:55:08.816Z,9.661996
2022-09-02T06:56:08.819Z,9.661795
2022-09-02T06:57:08.931Z,9.661692
2022-09-02T06:58:08.809Z,9.661763
2022-09-02T06:59:08.804Z,9.661770
2022-09-02T07:00:08.807Z,9.662026
2022-09-02T07:01:08.859Z,9.661980
2022-09-02T07:02:09.037Z,9.661667
2022-09-02T07:03:08.803Z,9.661972
2022-09-02T07:04:08.781Z,9.661890
2022-09-02T07:05:08.769Z,9.661443
2022-09-02T07:06:08.780Z,9.661537
2022-09-02T07:07:09.753Z,9.661429
2022-09-02T07:08:08.861Z,9.661534
2022-09-02T07:09:08.767Z,9.661587
2022-09-02T07:10:08.738Z,9.661381
2022-09-02T07:11:08.735Z,9.661428
2022-09-02T07:12:08.739Z,9.661460
2022-09-02T07:13:08.726Z,9.661567
2022-09-02T07:14:08.834Z,9.661483
2022-09-02T07:15:08.701Z,9.661514
2022-09-02T07:16:09.753Z,9.661457
2022-09-02T07:17:08.743Z,9.661449
2022-09-02T07:18:08.694Z,9.661544
2022-09-02T07:19:14.046Z,9.661615
2022-09-02T07:20:09.681Z,9.661633
2022-09-02T07:21:08.675Z,9.661551
2022-09-02T07:22:08.682Z,9.661445
2022-09-02T07:23:08.657Z,9.661388
2022-09-02T07:24:08.661Z,9.661466
2022-09-02T07:25:08.675Z,9.661419
2022-09-02T07:26:08.638Z,9.661524
2022-09-02T07:27:08.642Z,9.661488
2022-09-02T07:28:08.633Z,9.661462
2022-09-02T07:29:08.623Z,9.661680
2022-09-02T07:30:08.662Z,9.661512
2022-09-02T07:31:08.650Z,9.661609
2022-09-02T07:32:08.600Z,9.661433
2022-09-02T07:33:08.611Z,9.661528
2022-09-02T07:34:08.593Z,9.661553
2022-09-02T07:35:08.574Z,9.661529
2022-09-02T07:36:12.202Z,9.661407
2022-09-02T07:37:10.832Z,9.661415
2022-09-02T07:38:09.565Z,9.661542
2022-09-02T07:39:08.553Z,9.661459
2022-09-02T07:40:08.616Z,9.661585
2022-09-02T07:41:08.568Z,9.661312
2022-09-02T07:42:08.535Z,9.661479
2022-09-02T07:43:08.526Z,9.661420
2022-09-02T07:44:08.538Z,9.661379
2022-09-02T07:45:08.513Z,9.661244
2022-09-02T07:46:08.559Z,9.661131
2022-09-02T07:47:08.531Z,9.660357
2022-09-02T07:48:08.501Z,9.659836
2022-09-02T07:49:09.341Z,9.661128
2022-09-02T07:50:19.102Z,9.661757
2022-09-02T07:51:10.486Z,9.661859
2022-09-02T07:52:08.506Z,9.661839
2022-09-02T07:53:08.465Z,9.661799
2022-09-02T07:54:08.466Z,9.661810
2022-09-02T07:55:12.609Z,9.661742
2022-09-02T07:56:09.472Z,9.661619
2022-09-02T07:57:08.476Z,9.661688
2022-09-02T07:58:08.516Z,9.661635
2022-09-02T07:59:08.442Z,9.661707
2022-09-02T08:00:08.422Z,9.661798
2022-09-02T08:01:08.633Z,9.661860
2022-09-02T08:02:08.472Z,9.661728
2022-09-02T08:04:08.407Z,9.661509
2022-09-02T08:05:08.395Z,9.661550
2022-09-02T08:06:08.390Z,9.661599
2022-09-02T08:07:08.382Z,9.661703
2022-09-02T08:08:08.393Z,9.661770
2022-09-02T08:09:08.511Z,9.661860
2022-09-02T08:10:08.357Z,9.661963
2022-09-02T08:11:08.364Z,9.661757
2022-09-02T08:12:08.375Z,9.661576
2022-09-02T08:13:08.347Z,9.661488
2022-09-02T08:14:08.451Z,9.661542
2022-09-02T08:15:08.334Z,9.661556
2022-09-02T08:16:08.422Z,9.661425
2022-09-02T08:17:08.386Z,9.661413
2022-09-02T08:18:08.559Z,9.661421
2022-09-02T08:19:08.321Z,9.661342
2022-09-02T08:20:12.270Z,9.661561
2022-09-02T08:21:09.308Z,9.661819
2022-09-02T08:22:08.291Z,9.661653
2022-09-02T08:23:12.479Z,9.661530
2022-09-02T08:24:09.282Z,9.661395
2022-09-02T08:25:08.409Z,9.661418
2022-09-02T08:26:08.286Z,9.661437
2022-09-02T08:27:08.279Z,9.661525
2022-09-02T08:28:08.263Z,9.661560
2022-09-02T08:29:08.241Z,9.661506
2022-09-02T08:30:08.251Z,9.661420
2022-09-02T08:31:08.278Z,9.661532
2022-09-02T08:32:09.270Z,9.661479
2022-09-02T08:33:08.229Z,9.661402
2022-09-02T08:34:08.218Z,9.661432
2022-09-02T08:35:08.220Z,9.661508
2022-09-02T08:36:08.232Z,9.661474
2022-09-02T08:37:08.203Z,9.661466
2022-09-02T08:38:08.179Z,9.661406
2022-09-02T08:39:08.193Z,9.661413
2022-09-02T08:40:08.229Z,9.661454
2022-09-02T08:41:08.196Z,9.661406
2022-09-02T08:42:08.289Z,9.661354
2022-09-02T08:43:08.161Z,9.661400
2022-09-02T08:44:08.168Z,9.661426
2022-09-02T08:45:08.140Z,9.661366
2022-09-02T08:46:08.235Z,9.661332
2022-09-02T08:47:08.151Z,9.661381
2022-09-02T08:48:08.136Z,9.661469
2022-09-02T08:49:08.132Z,9.661498
2022-09-02T08:50:08.133Z,9.661555
2022-09-02T08:51:08.117Z,9.661506
2022-09-02T08:52:08.128Z,9.661538
2022-09-02T08:53:08.231Z,9.661535
2022-09-02T08:54:08.088Z,9.661543
2022-09-02T08:55:08.094Z,9.661974
2022-09-02T08:56:08.092Z,9.661787
2022-09-02T08:57:08.098Z,9.661708
2022-09-02T08:58:08.122Z,9.661521
2022-09-02T08:59:08.083Z,9.661785
2022-09-02T09:00:08.073Z,9.661822
2022-09-02T09:01:08.111Z,9.661666
2022-09-02T09:02:08.077Z,9.661571
2022-09-02T09:03:08.062Z,9.661381
2022-09-02T09:04:08.084Z,9.661396
2022-09-02T09:05:08.037Z,9.661457
2022-09-02T09:06:08.024Z,9.661449
2022-09-02T09:07:08.047Z,9.661602
2022-09-02T09:08:10.870Z,9.661542
2022-09-02T09:09:09.053Z,9.661475
2022-09-02T09:10:08.014Z,9.661344
2022-09-02T09:11:08.012Z,9.661282
2022-09-02T09:12:08.081Z,9.661351
2022-09-02T09:13:08.034Z,9.661574
2022-09-02T09:14:08.088Z,9.661533
2022-09-02T09:15:08.221Z,9.661460
2022-09-02T09:16:08.143Z,9.661589
2022-09-02T09:17:08.053Z,9.661633
2022-09-02T09:18:07.973Z,9.661622
2022-09-02T09:19:08.862Z,9.661473
2022-09-02T09:20:08.979Z,9.661575
2022-09-02T09:21:07.982Z,9.661560
2022-09-02T09:22:07.949Z,9.661597
2022-09-02T09:23:07.950Z,9.661513
2022-09-02T09:24:07.938Z,9.661612
2022-09-02T09:25:07.941Z,9.661504
2022-09-02T09:26:07.935Z,9.661410
2022-09-02T09:27:07.932Z,9.661494
2022-09-02T09:28:07.914Z,9.661492
2022-09-02T09:29:07.907Z,9.661570
2022-09-02T09:30:10.456Z,9.661557
2022-09-02T09:31:07.905Z,9.661592
2022-09-02T09:32:07.882Z,9.661772
2022-09-02T09:33:07.901Z,9.661643
2022-09-02T09:34:07.892Z,9.661517
2022-09-02T09:35:07.926Z,9.661517
2022-09-02T09:36:07.893Z,9.661698
2022-09-02T09:37:07.865Z,9.661693
2022-09-02T09:38:07.875Z,9.661756
2022-09-02T09:39:07.860Z,9.661914
2022-09-02T09:40:07.918Z,9.661940
2022-09-02T09:41:07.852Z,9.661930
2022-09-02T09:42:07.836Z,9.661774
2022-09-02T09:43:14.771Z,9.661640
2022-09-02T09:44:07.816Z,9.661648
2022-09-02T09:45:07.838Z,9.661591
2022-09-02T09:46:07.906Z,9.661563
2022-09-02T09:47:07.824Z,9.661539
2022-09-02T09:48:07.803Z,9.661516
2022-09-02T09:49:07.822Z,9.661693
2022-09-02T09:50:07.814Z,9.661601
2022-09-02T09:51:07.803Z,9.661687
2022-09-02T09:52:07.786Z,9.661568
2022-09-02T09:53:07.784Z,9.661582
2022-09-02T09:54:07.781Z,9.661665
2022-09-02T09:55:07.779Z,9.661690
2022-09-02T09:56:07.773Z,9.661662
2022-09-02T09:57:07.763Z,9.661690
2022-09-02T09:58:07.753Z,9.661654
2022-09-02T09:59:07.739Z,9.661743
2022-09-02T10:00:08.312Z,9.661716
2022-09-02T10:01:07.823Z,9.661732
2022-09-02T10:02:07.819Z,9.661806
2022-09-02T10:03:07.747Z,9.661770
2022-09-02T10:04:20.756Z,9.661711
2022-09-02T10:05:08.729Z,9.661531
2022-09-02T10:06:07.737Z,9.661679
2022-09-02T10:07:07.710Z,9.661696
2022-09-02T10:08:15.025Z,9.661808
2022-09-02T10:09:35.715Z,9.661860
2022-09-02T10:10:07.692Z,9.661707
2022-09-02T10:11:07.833Z,9.661606
2022-09-02T10:12:07.706Z,9.661657
2022-09-02T10:13:07.705Z,9.661692
2022-09-02T10:14:07.710Z,9.661730
2022-09-02T10:15:07.678Z,9.661754
2022-09-02T10:16:07.893Z,9.661741
2022-09-02T10:17:07.696Z,9.661681
2022-09-02T10:18:07.649Z,9.661598
2022-09-02T10:19:07.633Z,9.661663
2022-09-02T10:20:07.632Z,9.661637
2022-09-02T10:21:15.077Z,9.661631
2022-09-02T10:22:09.661Z,9.661624
2022-09-02T10:23:07.620Z,9.661632
2022-09-02T10:24:07.642Z,9.661580
2022-09-02T10:25:07.607Z,9.661564
2022-09-02T10:26:07.603Z,9.661556
2022-09-02T10:27:07.594Z,9.661597
2022-09-02T10:28:07.598Z,9.661642
2022-09-02T10:29:07.589Z,9.661616
2022-09-02T10:30:07.589Z,9.661584
2022-09-02T10:31:07.649Z,9.661631
2022-09-02T10:32:07.567Z,9.661616
2022-09-02T10:33:07.578Z,9.661627
2022-09-02T10:34:07.557Z,9.661611
2022-09-02T10:35:07.524Z,9.661575
2022-09-02T10:36:07.533Z,9.661659
2022-09-02T10:37:07.557Z,9.661674
2022-09-02T10:38:07.525Z,9.661616
2022-09-02T10:39:07.510Z,9.661576
2022-09-02T10:40:07.610Z,9.661659
2022-09-02T10:41:07.517Z,9.661628
2022-09-02T10:42:08.756Z,9.661607
2022-09-02T10:43:07.478Z,9.661695
2022-09-02T10:44:07.492Z,9.661751
2022-09-02T10:45:07.478Z,9.661725
2022-09-02T10:46:07.495Z,9.661497
2022-09-02T10:47:07.483Z,9.661533
2022-09-02T10:48:07.673Z,9.661570
2022-09-02T10:49:07.475Z,9.661632
2022-09-02T10:50:07.447Z,9.661705
2022-09-02T10:51:07.471Z,9.661724
2022-09-02T10:52:07.509Z,9.661389
2022-09-02T10:53:09.556Z,9.661352
2022-09-02T10:54:07.432Z,9.661446
2022-09-02T10:55:07.441Z,9.661474
2022-09-02T10:56:07.410Z,9.661558
2022-09-02T10:57:07.429Z,9.661569
2022-09-02T10:58:07.396Z,9.661678
2022-09-02T10:59:07.444Z,9.661538
2022-09-02T11:00:07.387Z,9.661574
2022-09-02T11:01:07.440Z,9.661362
2022-09-02T11:02:07.384Z,9.661376
2022-09-02T11:03:07.394Z,9.661575
2022-09-02T11:04:07.396Z,9.661448
2022-09-02T11:05:07.357Z,9.661496
2022-09-02T11:06:07.361Z,9.661514
2022-09-02T11:07:07.347Z,9.662025
2022-09-02T11:08:07.376Z,9.661608
2022-09-02T11:09:07.340Z,9.661683
2022-09-02T11:10:07.357Z,9.661428
2022-09-02T11:11:07.333Z,9.661269
2022-09-02T11:12:07.329Z,9.661519
2022-09-02T11:13:07.408Z,9.661550
2022-09-02T11:14:07.319Z,9.661571
2022-09-02T11:15:07.345Z,9.661574
2022-09-02T11:16:07.367Z,9.661489
2022-09-02T11:17:13.402Z,9.661546
2022-09-02T11:18:08.289Z,9.661430
2022-09-02T11:19:07.373Z,9.661395
2022-09-02T11:20:07.305Z,9.661559
2022-09-02T11:21:07.380Z,9.661443
2022-09-02T11:22:07.283Z,9.661425
2022-09-02T11:23:07.256Z,9.661392
2022-09-02T11:24:07.267Z,9.661522
2022-09-02T11:25:07.247Z,9.661457
2022-09-02T11:26:07.295Z,9.661594
2022-09-02T11:27:15.741Z,9.661314
2022-09-02T11:28:08.235Z,9.661571
2022-09-02T11:29:07.222Z,9.661510
2022-09-02T11:30:07.232Z,9.661490
2022-09-02T11:31:07.203Z,9.661497
2022-09-02T11:32:07.311Z,9.661465
2022-09-02T11:33:07.199Z,9.661415
2022-09-02T11:34:07.187Z,9.661386
2022-09-02T11:35:07.187Z,9.661408
2022-09-02T11:36:07.176Z,9.661427
2022-09-02T11:37:07.188Z,9.661486
2022-09-02T11:38:07.188Z,9.661426
2022-09-02T11:39:07.146Z,9.661442
2022-09-02T11:40:30.279Z,9.661421
2022-09-02T11:42:09.201Z,9.661409
2022-09-02T11:43:07.175Z,9.661429
2022-09-02T11:44:07.112Z,9.661376
2022-09-02T11:45:07.155Z,9.661439
2022-09-02T11:46:07.185Z,9.661521
2022-09-02T11:47:07.115Z,9.661580
2022-09-02T11:48:07.216Z,9.661503
2022-09-02T11:49:08.516Z,9.661501
2022-09-02T11:50:07.088Z,9.661493